Time;durP1;ratioP1;P1;durP2;ratioP2;P2;SDS_P1;SDS_P2;PMS_P1;PMS_P2;Temp;Humidity;BMP_temperature;BMP_pressure;BME280_temperature;BME280_humidity;BME280_pressure;Samples;Min_cycle;Max_cycle;Signal;HPM_P1;HPM_P2
2021/08/30 00:00:06;;;;;;;;;;;;;;;15.09;80.85;97764.36;1715622;82;24471;-86
2021/08/30 00:02:34;;;;;;;;;;;;;;;15.01;80.87;97762.96;1710561;81;20288;-86
2021/08/30 00:05:05;;;;;;;;;;;;;;;15.00;80.90;97754.22;1719846;82;25448;-86
2021/08/30 00:07:31;;;;;;;;;;;;;;;15.05;80.94;97748.01;1734115;80;22083;-85
2021/08/30 00:09:57;;;;;;;;;;;;;;;15.08;80.95;97748.20;1711282;82;26021;-86
2021/08/30 00:12:24;;;;;;;;;;;;;;;15.08;80.95;97746.41;1739025;81;20258;-86
2021/08/30 00:15:05;;;;;;;;;;;;;;;15.05;80.94;97741.42;1710935;83;20294;-86
2021/08/30 00:17:32;;;;;;;;;;;;;;;15.05;80.95;97744.57;1739133;80;25980;-85
2021/08/30 00:20:01;;;;;;;;;;;;;;;15.01;80.97;97748.47;1745256;80;20238;-85
2021/08/30 00:22:28;;;;;;;;;;;;;;;14.98;81.01;97748.30;1712327;82;21794;-85
2021/08/30 00:24:54;;;;;;;;;;;;;;;14.96;81.03;97746.29;1740674;80;20234;-85
2021/08/30 00:27:20;;;;;;;;;;;;;;;14.96;81.04;97748.09;1709387;82;20329;-85
2021/08/30 00:29:46;;;;;;;;;;;;;;;14.95;81.03;97751.70;1738087;80;20215;-85
2021/08/30 00:32:13;;;;;;;;;;;;;;;14.92;81.07;97750.22;1709352;82;22842;-85
2021/08/30 00:34:39;;;;;;;;;;;;;;;14.91;81.10;97751.67;1735318;81;25957;-86
2021/08/30 00:37:05;;;;;;;;;;;;;;;14.88;81.11;97748.87;1709318;82;20421;-86
2021/08/30 00:39:32;;;;;;;;;;;;;;;14.88;81.13;97748.04;1736219;80;20215;-85
2021/08/30 00:41:58;;;;;;;;;;;;;;;14.87;81.16;97749.02;1711759;82;24769;-85
2021/08/30 00:44:24;;;;;;;;;;;;;;;14.83;81.16;97756.88;1739013;82;21898;-85
2021/08/30 00:46:51;;;;;;;;;;;;;;;14.75;81.20;97760.73;1710583;83;26057;-85
2021/08/30 00:49:17;;;;;;;;;;;;;;;14.76;81.24;97757.13;1737154;81;24449;-85
2021/08/30 00:51:45;;;;;;;;;;;;;;;14.77;81.28;97744.31;1708124;82;20222;-85
2021/08/30 00:54:11;;;;;;;;;;;;;;;14.79;81.30;97752.87;1736415;80;24763;-85
2021/08/30 00:56:42;;;;;;;;;;;;;;;14.79;81.34;97760.28;1705345;83;20623;-85
2021/08/30 00:59:14;;;;;;;;;;;;;;;14.68;81.37;97759.67;1742106;82;25955;-85
2021/08/30 01:01:41;;;;;;;;;;;;;;;14.61;81.41;97769.52;1705886;83;24413;-85
2021/08/30 01:04:11;;;;;;;;;;;;;;;14.64;81.46;97760.47;1739947;80;20498;-86
2021/08/30 01:06:43;;;;;;;;;;;;;;;14.71;81.53;97765.48;1709455;82;24813;-86
2021/08/30 01:09:17;;;;;;;;;;;;;;;14.75;81.59;97762.89;1742096;80;21984;-87
2021/08/30 01:11:45;;;;;;;;;;;;;;;14.72;81.65;97768.95;1712050;80;26089;-87
2021/08/30 01:14:19;;;;;;;;;;;;;;;14.70;81.69;97766.95;1693421;83;20243;-87
2021/08/30 01:16:46;;;;;;;;;;;;;;;14.75;81.73;97760.73;1711532;83;20292;-86
2021/08/30 01:19:15;;;;;;;;;;;;;;;14.86;81.78;97757.88;1711271;83;24909;-87
2021/08/30 01:21:42;;;;;;;;;;;;;;;14.86;81.82;97763.98;1709984;81;21965;-87
2021/08/30 01:24:10;;;;;;;;;;;;;;;14.86;81.86;97766.63;1710981;83;25989;-86
2021/08/30 01:26:43;;;;;;;;;;;;;;;14.80;81.85;97761.12;1710852;81;25280;-87
2021/08/30 01:29:28;;;;;;;;;;;;;;;14.81;81.89;97760.98;1710629;83;20227;-87
2021/08/30 01:31:56;;;;;;;;;;;;;;;14.88;81.94;97759.89;1709632;83;24731;-87
2021/08/30 01:34:25;;;;;;;;;;;;;;;14.91;81.95;97759.58;1710884;83;21993;-87
2021/08/30 01:36:54;;;;;;;;;;;;;;;14.85;81.99;97761.49;1708740;83;26039;-87
2021/08/30 01:39:30;;;;;;;;;;;;;;;14.78;82.00;97768.36;1709592;83;25472;-87
2021/08/30 01:42:02;;;;;;;;;;;;;;;14.70;82.03;97763.83;1712311;83;20546;-87
2021/08/30 01:44:29;;;;;;;;;;;;;;;14.67;82.04;97755.41;1710289;83;24765;-87
2021/08/30 01:46:56;;;;;;;;;;;;;;;14.65;82.05;97759.01;1712231;82;22840;-86
2021/08/30 01:49:23;;;;;;;;;;;;;;;14.75;82.10;97756.30;1711009;83;26052;-87
2021/08/30 01:51:52;;;;;;;;;;;;;;;14.72;82.14;97752.66;1736526;81;20209;-87
2021/08/30 01:54:19;;;;;;;;;;;;;;;14.76;82.16;97747.91;1711845;83;20271;-87
2021/08/30 01:56:48;;;;;;;;;;;;;;;14.89;82.20;97744.43;1711137;83;24782;-86
2021/08/30 02:02:02;;;;;;;;;;;;;;;14.87;82.25;97743.74;1710134;83;26024;-86
2021/08/30 02:04:28;;;;;;;;;;;;;;;14.95;82.27;97740.67;1711267;83;24434;-86
2021/08/30 02:06:54;;;;;;;;;;;;;;;15.02;82.27;97748.33;1708874;83;20277;-87
2021/08/30 02:09:21;;;;;;;;;;;;;;;14.96;82.28;97744.97;1708055;83;24400;-86
2021/08/30 02:11:47;;;;;;;;;;;;;;;14.90;82.24;97748.70;1724500;80;21991;-85
2021/08/30 02:14:20;;;;;;;;;;;;;;;14.95;82.27;97741.16;1744102;80;26698;-85
2021/08/30 02:16:49;;;;;;;;;;;;;;;15.02;82.26;97742.22;1714924;80;20640;-86
2021/08/30 02:19:26;;;;;;;;;;;;;;;14.99;82.29;97739.42;1760453;80;20284;-85
2021/08/30 02:22:06;;;;;;;;;;;;;;;14.93;82.27;97741.82;1729007;81;24828;-86
2021/08/30 02:24:34;;;;;;;;;;;;;;;14.91;82.25;97739.81;1756525;80;22733;-86
2021/08/30 02:27:06;;;;;;;;;;;;;;;14.89;82.27;97736.01;1763911;80;25979;-89
2021/08/30 02:29:31;;;;;;;;;;;;;;;14.90;82.28;97731.57;1752687;80;25111;-88
2021/08/30 02:32:01;;;;;;;;;;;;;;;14.92;82.29;97731.77;1736758;79;20461;-88
2021/08/30 02:34:29;;;;;;;;;;;;;;;15.01;82.27;97733.97;1764338;80;25544;-89
2021/08/30 02:36:57;;;;;;;;;;;;;;;15.09;82.29;97728.78;1764672;80;22210;-89
2021/08/30 02:39:24;;;;;;;;;;;;;;;15.13;82.27;97732.77;1762124;80;26012;-89
2021/08/30 02:41:51;;;;;;;;;;;;;;;15.17;82.29;97737.23;1762160;80;25312;-85
2021/08/30 02:44:17;;;;;;;;;;;;;;;15.19;82.26;97737.42;1764374;79;20504;-85
2021/08/30 02:46:48;;;;;;;;;;;;;;;15.22;82.25;97736.31;1764494;80;24759;-84
2021/08/30 02:49:13;;;;;;;;;;;;;;;15.24;82.23;97736.48;1764186;81;21985;-85
2021/08/30 02:51:40;;;;;;;;;;;;;;;15.22;82.17;97743.70;1754404;80;25757;-85
2021/08/30 02:54:12;;;;;;;;;;;;;;;15.20;82.13;97736.45;1763748;80;24514;-85
2021/08/30 02:56:41;;;;;;;;;;;;;;;15.21;82.11;97735.97;1772511;80;20428;-85
2021/08/30 02:59:08;;;;;;;;;;;;;;;15.19;82.10;97733.47;1760600;80;24925;-86
2021/08/30 03:01:39;;;;;;;;;;;;;;;15.17;82.08;97735.42;1763682;80;22144;-85
2021/08/30 03:04:05;;;;;;;;;;;;;;;15.17;82.04;97734.59;1765800;80;25994;-85
2021/08/30 03:06:32;;;;;;;;;;;;;;;15.18;82.02;97737.57;1765858;79;24414;-85
2021/08/30 03:08:58;;;;;;;;;;;;;;;15.14;81.99;97741.02;1764677;80;20317;-86
2021/08/30 03:11:26;;;;;;;;;;;;;;;15.04;81.99;97737.64;1761936;81;20249;-86
2021/08/30 03:13:55;;;;;;;;;;;;;;;15.01;81.98;97732.66;1736865;80;21973;-86
2021/08/30 03:16:25;;;;;;;;;;;;;;;15.01;81.98;97735.29;1733568;80;26073;-86
2021/08/30 03:18:54;;;;;;;;;;;;;;;14.98;81.99;97735.13;1704713;82;24535;-86
2021/08/30 03:21:27;;;;;;;;;;;;;;;14.91;82.01;97734.55;1734620;81;21383;-86
2021/08/30 03:23:55;;;;;;;;;;;;;;;14.87;82.02;97736.67;1729384;80;24743;-86
2021/08/30 03:26:24;;;;;;;;;;;;;;;14.83;82.03;97735.33;1709237;82;20184;-85
2021/08/30 03:28:52;;;;;;;;;;;;;;;14.84;82.05;97734.31;1729529;80;25997;-86
2021/08/30 03:31:20;;;;;;;;;;;;;;;14.86;82.09;97734.17;1735408;82;24654;-86
2021/08/30 03:33:48;;;;;;;;;;;;;;;14.85;82.12;97732.52;1736146;81;20251;-86
2021/08/30 03:36:14;;;;;;;;;;;;;;;14.84;82.13;97734.31;1732889;82;24730;-86
2021/08/30 03:38:47;;;;;;;;;;;;;;;14.84;82.14;97733.48;1734177;80;22696;-86
2021/08/30 03:41:14;;;;;;;;;;;;;;;14.82;82.16;97735.47;1738011;81;25970;-88
2021/08/30 03:43:41;;;;;;;;;;;;;;;14.67;82.19;97740.44;1747777;80;24580;-89
2021/08/30 03:46:07;;;;;;;;;;;;;;;14.61;82.21;97728.69;1725658;80;20539;-88
2021/08/30 03:48:34;;;;;;;;;;;;;;;14.62;82.23;97726.86;1736977;80;24890;-88
2021/08/30 03:51:03;;;;;;;;;;;;;;;14.59;82.27;97733.27;1733544;80;21955;-88
2021/08/30 03:53:31;;;;;;;;;;;;;;;14.56;82.30;97740.65;1738248;81;26675;-89
2021/08/30 03:56:09;;;;;;;;;;;;;;;14.51;82.35;97742.91;1731024;81;25159;-89
2021/08/30 03:58:37;;;;;;;;;;;;;;;14.42;82.39;97745.92;1733346;81;20514;-89
2021/08/30 04:01:07;;;;;;;;;;;;;;;14.35;82.45;97747.44;1735980;80;24771;-89
2021/08/30 04:03:46;;;;;;;;;;;;;;;14.32;82.50;97749.06;1738191;80;22026;-89
2021/08/30 04:06:14;;;;;;;;;;;;;;;14.31;82.54;97762.36;1738113;80;26738;-85
2021/08/30 04:08:40;;;;;;;;;;;;;;;14.32;82.61;97752.19;1732990;81;24671;-86
2021/08/30 04:11:09;;;;;;;;;;;;;;;14.41;82.66;97739.47;1729717;80;20251;-86
2021/08/30 04:13:37;;;;;;;;;;;;;;;14.49;82.69;97736.94;1707128;80;20282;-88
2021/08/30 04:16:03;;;;;;;;;;;;;;;14.53;82.72;97741.76;1739055;81;22065;-88
2021/08/30 04:18:33;;;;;;;;;;;;;;;14.56;82.76;97741.97;1738835;81;26010;-88
2021/08/30 04:20:59;;;;;;;;;;;;;;;14.52;82.80;97749.31;1735158;81;24522;-88
2021/08/30 04:23:27;;;;;;;;;;;;;;;14.48;82.86;97757.17;1739611;80;20132;-88
2021/08/30 04:25:54;;;;;;;;;;;;;;;14.43;82.86;97748.89;1734126;80;37832;-88
2021/08/30 04:28:24;;;;;;;;;;;;;;;14.48;82.90;97742.70;1734238;82;22240;-89
2021/08/30 04:30:53;;;;;;;;;;;;;;;14.55;82.92;97746.41;1737468;80;26219;-89
2021/08/30 04:33:21;;;;;;;;;;;;;;;14.51;82.95;97752.12;1737907;81;25274;-88
2021/08/30 04:35:47;;;;;;;;;;;;;;;14.47;82.96;97749.42;1736401;80;20297;-89
2021/08/30 04:38:13;;;;;;;;;;;;;;;14.45;82.99;97752.22;1734501;80;24849;-88
2021/08/30 04:40:42;;;;;;;;;;;;;;;14.44;83.01;97762.41;1755680;80;20282;-89
2021/08/30 04:43:09;;;;;;;;;;;;;;;14.42;83.05;97749.86;1738798;81;26037;-89
2021/08/30 04:45:37;;;;;;;;;;;;;;;14.48;83.10;97753.23;1734361;82;24536;-88
2021/08/30 04:48:06;;;;;;;;;;;;;;;14.57;83.12;97753.64;1738038;80;20224;-89
2021/08/30 04:50:32;;;;;;;;;;;;;;;14.63;83.16;97751.73;1734441;80;24809;-88
2021/08/30 04:52:58;;;;;;;;;;;;;;;14.68;83.18;97750.45;1736917;81;22052;-88
2021/08/30 04:55:24;;;;;;;;;;;;;;;14.67;83.19;97749.66;1735767;80;26129;-88
2021/08/30 04:58:12;;;;;;;;;;;;;;;14.62;83.19;97755.34;1735960;80;21734;-88
2021/08/30 05:00:41;;;;;;;;;;;;;;;14.55;83.20;97767.47;1732710;81;20280;-89
2021/08/30 05:03:12;;;;;;;;;;;;;;;14.49;83.22;97763.27;1734815;80;25453;-88
2021/08/30 05:05:38;;;;;;;;;;;;;;;14.50;83.22;97772.83;1736562;81;22207;-89
2021/08/30 05:08:05;;;;;;;;;;;;;;;14.47;83.25;97769.16;1737539;80;26804;-89
2021/08/30 05:10:31;;;;;;;;;;;;;;;14.44;83.26;97766.84;1736106;81;24413;-89
2021/08/30 05:12:58;;;;;;;;;;;;;;;14.38;83.27;97765.63;1733756;80;20232;-89
2021/08/30 05:15:28;;;;;;;;;;;;;;;14.36;83.29;97768.02;1731487;80;24854;-88
2021/08/30 05:17:52;;;;;;;;;;;;;;;14.38;83.33;97768.74;1714458;82;21976;-88
2021/08/30 05:20:19;;;;;;;;;;;;;;;14.39;83.36;97771.23;1724128;83;26035;-88
2021/08/30 05:22:46;;;;;;;;;;;;;;;14.47;83.39;97766.05;1723999;82;24634;-88
2021/08/30 05:25:15;;;;;;;;;;;;;;;14.57;83.43;97761.55;1723539;83;20248;-88
2021/08/30 05:27:44;;;;;;;;;;;;;;;14.61;83.45;97762.09;1723933;83;24784;-88
2021/08/30 05:30:13;;;;;;;;;;;;;;;14.58;83.46;97765.84;1724058;82;22637;-88
2021/08/30 05:32:39;;;;;;;;;;;;;;;14.56;83.50;97770.41;1724017;83;26864;-88
2021/08/30 05:35:06;;;;;;;;;;;;;;;14.54;83.53;97768.44;1723867;82;24442;-88
2021/08/30 05:37:33;;;;;;;;;;;;;;;14.58;83.54;97767.16;1749406;81;20254;-88
2021/08/30 05:39:59;;;;;;;;;;;;;;;14.58;83.57;97771.11;1724358;82;20278;-88
2021/08/30 05:42:25;;;;;;;;;;;;;;;14.53;83.57;97775.98;1752241;81;21929;-89
2021/08/30 05:44:51;;;;;;;;;;;;;;;14.56;83.59;97770.41;1723778;83;26171;-89
2021/08/30 05:47:17;;;;;;;;;;;;;;;14.59;83.59;97774.09;1722023;83;24286;-89
2021/08/30 05:49:45;;;;;;;;;;;;;;;14.64;83.60;97757.34;1724388;83;20403;-89
2021/08/30 05:52:15;;;;;;;;;;;;;;;14.68;83.60;97761.81;1724155;82;24803;-89
2021/08/30 05:54:43;;;;;;;;;;;;;;;14.63;83.62;97754.37;1753834;81;22359;-89
2021/08/30 05:57:09;;;;;;;;;;;;;;;14.60;83.62;97756.48;1724200;83;26158;-90
2021/08/30 05:59:36;;;;;;;;;;;;;;;14.61;83.64;97758.98;1723689;83;20242;-89
2021/08/30 06:02:03;;;;;;;;;;;;;;;14.67;83.66;97763.30;1724092;83;20200;-89
2021/08/30 06:04:31;;;;;;;;;;;;;;;14.68;83.65;97767.08;1721898;83;24869;-89
2021/08/30 06:06:57;;;;;;;;;;;;;;;14.67;83.67;97769.89;1724179;83;22039;-90
2021/08/30 06:09:23;;;;;;;;;;;;;;;14.75;83.69;97764.20;1724310;83;21027;-89
2021/08/30 06:11:51;;;;;;;;;;;;;;;14.71;83.67;97773.39;1723814;83;24426;-90
2021/08/30 06:14:17;;;;;;;;;;;;;;;14.67;83.70;97773.36;1726676;83;20223;-89
2021/08/30 06:16:43;;;;;;;;;;;;;;;14.63;83.67;97778.07;1744282;82;20259;-89
2021/08/30 06:19:09;;;;;;;;;;;;;;;14.54;83.66;97776.34;1779493;80;22022;-89
2021/08/30 06:21:35;;;;;;;;;;;;;;;14.52;83.66;97776.13;1767433;80;20993;-89
2021/08/30 06:24:01;;;;;;;;;;;;;;;14.52;83.66;97762.48;1724067;83;20271;-89
2021/08/30 06:26:29;;;;;;;;;;;;;;;14.56;83.66;97764.34;1734884;82;20565;-89
2021/08/30 06:28:55;;;;;;;;;;;;;;;14.51;83.67;97765.28;1721212;83;24949;-89
2021/08/30 06:31:21;;;;;;;;;;;;;;;14.53;83.70;97761.51;1739483;81;22569;-89
2021/08/30 06:33:47;;;;;;;;;;;;;;;14.62;83.74;97767.19;1769190;79;21008;-89
2021/08/30 06:36:13;;;;;;;;;;;;;;;14.63;83.75;97771.48;1734216;81;20354;-89
2021/08/30 06:38:39;;;;;;;;;;;;;;;14.65;83.77;97768.23;1728955;81;20300;-89
2021/08/30 06:41:07;;;;;;;;;;;;;;;14.67;83.80;97768.58;1745748;80;25431;-89
2021/08/30 06:43:33;;;;;;;;;;;;;;;14.72;83.84;97765.00;1745092;80;20318;-89
2021/08/30 06:45:59;;;;;;;;;;;;;;;14.66;83.85;97765.11;1745669;80;26100;-89
2021/08/30 06:48:25;;;;;;;;;;;;;;;14.65;83.86;97760.81;1743792;80;20246;-89
2021/08/30 06:50:51;;;;;;;;;;;;;;;14.73;83.92;97760.08;1743324;82;20309;-89
2021/08/30 06:53:17;;;;;;;;;;;;;;;14.79;83.92;97757.65;1745064;80;20199;-89
2021/08/30 06:55:43;;;;;;;;;;;;;;;14.81;83.94;97758.83;1744744;82;20891;-89
2021/08/30 06:58:09;;;;;;;;;;;;;;;14.81;83.96;97764.09;1744919;80;21037;-89
2021/08/30 07:00:37;;;;;;;;;;;;;;;14.84;83.98;97761.14;1743642;80;20262;-89
2021/08/30 07:03:03;;;;;;;;;;;;;;;14.87;84.01;97764.81;1745231;80;20239;-89
2021/08/30 07:05:29;;;;;;;;;;;;;;;14.93;84.02;97764.22;1742068;80;20813;-89
2021/08/30 07:07:55;;;;;;;;;;;;;;;14.96;84.03;97761.27;1745894;80;22034;-89
2021/08/30 07:10:21;;;;;;;;;;;;;;;14.99;84.04;97767.57;1745904;80;20948;-89
2021/08/30 07:12:47;;;;;;;;;;;;;;;15.04;84.04;97761.36;1747300;80;24411;-89
2021/08/30 07:15:13;;;;;;;;;;;;;;;15.04;84.04;97761.36;1744009;80;20270;-89
2021/08/30 07:17:48;;;;;;;;;;;;;;;15.02;84.05;97765.94;1744200;80;24936;-89
2021/08/30 07:20:14;;;;;;;;;;;;;;;14.95;84.04;97767.52;1716453;80;21972;-89
2021/08/30 07:22:40;;;;;;;;;;;;;;;14.94;84.02;97772.47;1746732;82;21084;-89
2021/08/30 07:25:06;;;;;;;;;;;;;;;14.90;84.05;97780.31;1744249;82;24433;-89
2021/08/30 07:27:33;;;;;;;;;;;;;;;14.88;84.02;97782.28;1743090;80;20260;-89
2021/08/30 07:30:01;;;;;;;;;;;;;;;14.93;84.03;97785.30;1742306;80;25340;-88
2021/08/30 07:32:26;;;;;;;;;;;;;;;14.99;84.04;97788.16;1746054;80;22075;-88
2021/08/30 07:34:58;;;;;;;;;;;;;;;15.02;84.05;97787.02;1745663;80;21126;-89
2021/08/30 07:37:28;;;;;;;;;;;;;;;15.02;84.08;97792.29;1748786;80;24498;-89
2021/08/30 07:39:54;;;;;;;;;;;;;;;15.04;84.07;97793.81;1743587;80;20259;-86
2021/08/30 07:42:20;;;;;;;;;;;;;;;15.08;84.08;97789.89;1746223;82;24710;-86
2021/08/30 07:44:46;;;;;;;;;;;;;;;15.15;84.08;97791.44;1744197;80;22067;-86
2021/08/30 07:47:13;;;;;;;;;;;;;;;15.16;84.08;97785.19;1744012;82;26142;-87
2021/08/30 07:49:41;;;;;;;;;;;;;;;15.18;84.07;97793.75;1743999;80;24518;-87
2021/08/30 07:52:07;;;;;;;;;;;;;;;15.11;84.09;97792.69;1745288;80;20192;-87
2021/08/30 07:54:33;;;;;;;;;;;;;;;15.08;84.09;97787.25;1744077;80;20373;-88
2021/08/30 07:57:01;;;;;;;;;;;;;;;15.15;84.12;97793.24;1747286;80;21979;-87
2021/08/30 07:59:27;;;;;;;;;;;;;;;15.13;84.13;97791.23;1744802;80;26243;-88
2021/08/30 08:01:53;;;;;;;;;;;;;;;15.10;84.14;97797.66;1746770;82;24393;-88
2021/08/30 08:04:19;;;;;;;;;;;;;;;15.00;84.11;97792.43;1743965;80;20339;-88
2021/08/30 08:06:47;;;;;;;;;;;;;;;14.99;84.12;97805.78;1743319;82;25489;-88
2021/08/30 08:09:13;;;;;;;;;;;;;;;14.99;84.13;97800.52;1745157;82;22094;-88
2021/08/30 08:11:39;;;;;;;;;;;;;;;15.04;84.16;97806.16;1744005;80;26238;-88
2021/08/30 08:14:05;;;;;;;;;;;;;;;15.07;84.20;97801.89;1735863;81;24427;-88
2021/08/30 08:16:32;;;;;;;;;;;;;;;15.10;84.22;97804.73;1737551;82;20278;-88
2021/08/30 08:18:58;;;;;;;;;;;;;;;15.16;84.26;97802.33;1732910;82;20742;-88
2021/08/30 08:21:24;;;;;;;;;;;;;;;15.18;84.29;97803.47;1735289;81;22041;-88
2021/08/30 08:23:52;;;;;;;;;;;;;;;15.23;84.32;97812.58;1734864;81;26123;-88
2021/08/30 08:26:33;;;;;;;;;;;;;;;15.28;84.32;97814.27;1733044;82;25514;-88
2021/08/30 08:29:00;;;;;;;;;;;;;;;15.28;84.33;97810.31;1734121;81;20278;-88
2021/08/30 08:31:26;;;;;;;;;;;;;;;15.24;84.33;97812.92;1734293;81;24740;-87
2021/08/30 08:33:52;;;;;;;;;;;;;;;15.29;84.36;97808.02;1732717;82;21926;-88
2021/08/30 08:36:20;;;;;;;;;;;;;;;15.35;84.38;97810.05;1735111;81;26529;-88
2021/08/30 08:38:46;;;;;;;;;;;;;;;15.41;84.41;97812.58;1733079;81;25437;-88
2021/08/30 08:41:15;;;;;;;;;;;;;;;15.45;84.41;97812.11;1736188;82;20212;-88
2021/08/30 08:43:41;;;;;;;;;;;;;;;15.48;84.40;97809.67;1713541;82;24790;-88
2021/08/30 08:46:08;;;;;;;;;;;;;;;15.51;84.41;97809.36;1763897;79;21908;-88
2021/08/30 08:48:34;;;;;;;;;;;;;;;15.54;84.40;97808.27;1734669;82;26023;-86
2021/08/30 08:51:00;;;;;;;;;;;;;;;15.52;84.40;97813.69;1730068;82;24386;-86
2021/08/30 08:53:32;;;;;;;;;;;;;;;15.49;84.45;97814.77;1733942;81;20298;-86
2021/08/30 08:55:58;;;;;;;;;;;;;;;15.49;84.46;97817.93;1730275;81;24784;-86
2021/08/30 08:58:25;;;;;;;;;;;;;;;15.53;84.50;97815.34;1735601;81;22674;-86
2021/08/30 09:01:02;;;;;;;;;;;;;;;15.50;84.53;97817.75;1737253;81;26859;-86
2021/08/30 09:03:31;;;;;;;;;;;;;;;15.51;84.55;97822.54;1735997;81;25217;-86
2021/08/30 09:06:01;;;;;;;;;;;;;;;15.57;84.57;97820.64;1732257;82;20656;-86
2021/08/30 09:08:28;;;;;;;;;;;;;;;15.57;84.58;97816.69;1731152;81;24800;-87
2021/08/30 09:10:54;;;;;;;;;;;;;;;15.50;84.58;97819.07;1734831;81;22026;-86
2021/08/30 09:13:22;;;;;;;;;;;;;;;15.43;84.58;97816.73;1733653;81;25932;-86
2021/08/30 09:15:48;;;;;;;;;;;;;;;15.45;84.54;97817.88;1721218;81;24435;-86
2021/08/30 09:18:14;;;;;;;;;;;;;;;15.46;84.54;97819.05;1719592;82;20252;-86
2021/08/30 09:20:40;;;;;;;;;;;;;;;15.49;84.54;97817.41;1718794;81;24937;-86
2021/08/30 09:23:12;;;;;;;;;;;;;;;15.52;84.51;97819.45;1720368;82;22036;-86
2021/08/30 09:25:38;;;;;;;;;;;;;;;15.49;84.51;97822.69;1718452;81;26230;-86
2021/08/30 09:28:04;;;;;;;;;;;;;;;15.49;84.50;97821.37;1717906;81;24410;-86
2021/08/30 09:30:30;;;;;;;;;;;;;;;15.52;84.50;97823.41;1720275;81;20485;-86
2021/08/30 09:33:00;;;;;;;;;;;;;;;15.53;84.51;97819.79;1718501;81;20546;-86
2021/08/30 09:35:26;;;;;;;;;;;;;;;15.56;84.56;97823.42;1719681;81;22019;-86
2021/08/30 09:37:53;;;;;;;;;;;;;;;15.62;84.60;97824.97;1717996;81;25977;-89
2021/08/30 09:40:20;;;;;;;;;;;;;;;15.60;84.62;97826.12;1717149;81;24329;-89
2021/08/30 09:42:49;;;;;;;;;;;;;;;15.60;84.61;97832.72;1717874;81;20223;-88
2021/08/30 09:45:16;;;;;;;;;;;;;;;15.53;84.63;97829.02;1718771;82;24738;-89
2021/08/30 09:47:49;;;;;;;;;;;;;;;15.49;84.63;97824.52;1719782;81;22037;-89
2021/08/30 09:50:16;;;;;;;;;;;;;;;15.52;84.62;97823.41;1717832;83;25989;-89
2021/08/30 09:52:42;;;;;;;;;;;;;;;15.58;84.64;97822.80;1718291;83;24388;-89
2021/08/30 09:55:08;;;;;;;;;;;;;;;15.67;84.62;97829.78;1718839;83;20346;-88
2021/08/30 09:57:36;;;;;;;;;;;;;;;15.72;84.65;97834.94;1720265;81;24666;-89
2021/08/30 10:00:04;;;;;;;;;;;;;;;15.75;84.71;97829.85;1719178;81;21963;-89
2021/08/30 10:02:30;;;;;;;;;;;;;;;15.79;84.74;97829.88;1718671;81;26033;-87
2021/08/30 10:04:59;;;;;;;;;;;;;;;15.79;84.78;97828.06;1718949;81;24578;-86
2021/08/30 10:07:27;;;;;;;;;;;;;;;15.80;84.79;97825.77;1718762;82;20227;-86
2021/08/30 10:09:53;;;;;;;;;;;;;;;15.89;84.81;97828.79;1715530;81;24737;-86
2021/08/30 10:12:20;;;;;;;;;;;;;;;15.97;84.84;97830.66;1719487;83;22208;-86
2021/08/30 10:14:47;;;;;;;;;;;;;;;15.97;84.80;97828.52;1714403;80;25962;-86
2021/08/30 10:17:15;;;;;;;;;;;;;;;15.97;84.80;97833.30;1708929;83;24435;-87
2021/08/30 10:19:41;;;;;;;;;;;;;;;16.04;84.75;97833.00;1712513;82;20285;-87
2021/08/30 10:22:19;;;;;;;;;;;;;;;16.08;84.78;97833.53;1694606;83;24609;-86
2021/08/30 10:24:46;;;;;;;;;;;;;;;16.11;84.79;97836.67;1710722;83;21993;-87
2021/08/30 10:27:14;;;;;;;;;;;;;;;16.11;84.80;97838.48;1710722;83;26131;-86
2021/08/30 10:29:44;;;;;;;;;;;;;;;16.20;84.81;97838.37;1710991;83;24438;-87
2021/08/30 10:32:21;;;;;;;;;;;;;;;16.24;84.79;97837.09;1711104;83;20247;-87
2021/08/30 10:34:48;;;;;;;;;;;;;;;16.21;84.77;97840.03;1711117;83;25507;-86
2021/08/30 10:37:23;;;;;;;;;;;;;;;16.27;84.77;97844.69;1711011;83;22036;-87
2021/08/30 10:39:54;;;;;;;;;;;;;;;16.36;84.76;97837.65;1711642;83;25989;-86
2021/08/30 10:42:23;;;;;;;;;;;;;;;16.43;84.74;97839.97;1733884;81;26663;-86
2021/08/30 10:44:53;;;;;;;;;;;;;;;16.42;84.65;97839.63;1710173;82;20615;-86
2021/08/30 10:47:21;;;;;;;;;;;;;;;16.35;84.59;97839.13;1710984;82;24767;-86
2021/08/30 10:49:49;;;;;;;;;;;;;;;16.35;84.53;97840.44;1710196;82;22006;-86
2021/08/30 10:52:16;;;;;;;;;;;;;;;16.38;84.43;97844.07;1710708;83;26041;-86
2021/08/30 10:54:53;;;;;;;;;;;;;;;16.38;84.35;97844.91;1711570;82;24540;-86
2021/08/30 10:57:19;;;;;;;;;;;;;;;16.34;84.31;97846.21;1711577;83;20220;-86
2021/08/30 10:59:47;;;;;;;;;;;;;;;16.40;84.28;97852.67;1711158;82;24893;-86
2021/08/30 11:02:13;;;;;;;;;;;;;;;16.39;84.24;97849.70;1711525;83;21945;-86
2021/08/30 11:04:41;;;;;;;;;;;;;;;16.33;84.16;97857.27;1710711;82;26866;-86
2021/08/30 11:07:08;;;;;;;;;;;;;;;16.26;84.09;97853.59;1685321;84;24663;-86
2021/08/30 11:09:35;;;;;;;;;;;;;;;16.20;83.97;97849.45;1707436;82;20209;-86
2021/08/30 11:12:14;;;;;;;;;;;;;;;16.19;83.92;97856.54;1707517;84;24730;-86
2021/08/30 11:14:40;;;;;;;;;;;;;;;16.23;83.92;97856.55;1740880;80;22302;-87
2021/08/30 11:17:09;;;;;;;;;;;;;;;16.26;83.94;97854.91;1742142;80;26111;-86
2021/08/30 11:19:34;;;;;;;;;;;;;;;16.30;83.96;97856.27;1738240;80;24424;-86
2021/08/30 11:22:01;;;;;;;;;;;;;;;16.40;83.99;97856.15;1737855;80;20396;-87
2021/08/30 11:24:29;;;;;;;;;;;;;;;16.44;84.08;97856.16;1739436;80;24227;-87
2021/08/30 11:26:56;;;;;;;;;;;;;;;16.44;84.10;97863.25;1741037;80;22006;-86
2021/08/30 11:29:23;;;;;;;;;;;;;;;16.44;84.07;97861.93;1739161;80;26749;-86
2021/08/30 11:31:49;;;;;;;;;;;;;;;16.46;84.04;97864.77;1741083;80;24414;-86
2021/08/30 11:34:27;;;;;;;;;;;;;;;16.48;84.06;97858.81;1743844;80;20215;-86
2021/08/30 11:36:55;;;;;;;;;;;;;;;16.46;84.09;97862.61;1739817;81;24712;-86
2021/08/30 11:39:22;;;;;;;;;;;;;;;16.47;84.11;97863.78;1739125;80;22052;-86
2021/08/30 11:42:01;;;;;;;;;;;;;;;16.53;84.10;97859.16;1740747;80;25777;-88
2021/08/30 11:44:29;;;;;;;;;;;;;;;16.53;84.11;97857.05;1741107;80;24591;-88
2021/08/30 11:46:56;;;;;;;;;;;;;;;16.54;84.10;97860.00;1743596;81;20314;-87
2021/08/30 11:49:29;;;;;;;;;;;;;;;16.55;84.10;97859.02;1742089;80;24758;-88
2021/08/30 11:52:01;;;;;;;;;;;;;;;16.59;84.12;97851.13;1741578;80;21565;-88
2021/08/30 11:54:43;;;;;;;;;;;;;;;16.66;84.13;97854.80;1740593;80;26068;-88
2021/08/30 11:57:15;;;;;;;;;;;;;;;16.72;84.06;97852.84;1737694;80;25327;-88
2021/08/30 11:59:44;;;;;;;;;;;;;;;16.80;84.02;97854.70;1743610;80;20236;-88
2021/08/30 12:02:11;;;;;;;;;;;;;;;16.83;83.98;97853.88;1736665;80;24823;-88
2021/08/30 12:04:39;;;;;;;;;;;;;;;16.88;83.95;97852.90;1737319;82;21963;-88
2021/08/30 12:07:10;;;;;;;;;;;;;;;16.90;83.91;97853.58;1735251;80;26761;-88
2021/08/30 12:09:43;;;;;;;;;;;;;;;16.90;83.84;97852.25;1740006;80;24532;-89
2021/08/30 12:12:15;;;;;;;;;;;;;;;16.87;83.76;97855.70;1738642;80;20279;-88
2021/08/30 12:14:43;;;;;;;;;;;;;;;16.83;83.67;97855.69;1738648;80;24764;-88
2021/08/30 12:17:12;;;;;;;;;;;;;;;16.83;83.64;97851.23;1709801;81;22080;-88
2021/08/30 12:19:40;;;;;;;;;;;;;;;16.86;83.61;97852.22;1705919;84;26033;-86
2021/08/30 12:22:06;;;;;;;;;;;;;;;16.84;83.56;97850.74;1709623;81;24427;-86
2021/08/30 12:24:36;;;;;;;;;;;;;;;16.83;83.49;97849.91;1705254;83;20148;-86
2021/08/30 12:27:02;;;;;;;;;;;;;;;16.85;83.42;97849.27;1705948;84;24784;-86
2021/08/30 12:29:30;;;;;;;;;;;;;;;16.85;83.40;97847.12;1706674;84;22154;-86
2021/08/30 12:31:56;;;;;;;;;;;;;;;16.88;83.34;97846.30;1705795;83;26076;-86
2021/08/30 12:34:24;;;;;;;;;;;;;;;16.92;83.30;97847.62;1706435;82;24530;-86
2021/08/30 12:36:51;;;;;;;;;;;;;;;16.91;83.29;97856.53;1705123;84;20315;-86
2021/08/30 12:39:17;;;;;;;;;;;;;;;16.89;83.25;97849.77;1708271;82;24846;-86
2021/08/30 12:41:43;;;;;;;;;;;;;;;16.87;83.20;97851.23;1706025;82;21965;-87
2021/08/30 12:44:09;;;;;;;;;;;;;;;16.85;83.15;97851.91;1706364;82;26031;-87
2021/08/30 12:46:35;;;;;;;;;;;;;;;16.85;83.06;97846.63;1706961;82;24407;-87
2021/08/30 12:49:09;;;;;;;;;;;;;;;16.87;82.97;97847.77;1706798;84;20284;-87
2021/08/30 12:51:38;;;;;;;;;;;;;;;16.91;82.97;97849.13;1706677;82;24596;-88
2021/08/30 12:54:04;;;;;;;;;;;;;;;16.97;82.98;97847.12;1707200;84;21950;-88